Time;durP1;ratioP1;P1;durP2;ratioP2;P2;SDS_P1;SDS_P2;PMS_P1;PMS_P2;Temp;Humidity;BMP_temperature;BMP_pressure;BME280_temperature;BME280_humidity;BME280_pressure;Samples;Min_cycle;Max_cycle;Signal;HPM_P1;HPM_P2
2024/01/09 00:00:59;;;;;;;5.15;2.28;;;;;;;;;;5009811;28;20361;-78
2024/01/09 00:03:24;;;;;;;6.45;2.45;;;;;;;;;;5008704;28;20387;-78
2024/01/09 00:05:50;;;;;;;4.47;2.33;;;;;;;;;;5008403;28;20117;-78
2024/01/09 00:08:15;;;;;;;4.72;2.28;;;;;;;;;;5015611;28;20030;-79
2024/01/09 00:10:41;;;;;;;4.82;2.42;;;;;;;;;;5018992;28;20543;-78
2024/01/09 00:13:06;;;;;;;4.88;2.20;;;;;;;;;;5019030;28;20025;-78
2024/01/09 00:15:32;;;;;;;5.53;2.30;;;;;;;;;;5017772;28;20075;-78
2024/01/09 00:17:59;;;;;;;4.95;2.13;;;;;;;;;;5023992;28;20485;-78
2024/01/09 00:20:28;;;;;;;5.28;2.40;;;;;;;;;;5015249;28;20095;-78
2024/01/09 00:22:55;;;;;;;4.18;2.00;;;;;;;;;;5011953;28;20048;-78
2024/01/09 00:25:21;;;;;;;4.85;2.17;;;;;;;;;;5017100;28;20037;-78
2024/01/09 00:27:49;;;;;;;5.20;2.70;;;;;;;;;;5017115;28;20862;-78
2024/01/09 00:30:15;;;;;;;4.78;2.17;;;;;;;;;;5025616;28;20021;-83
2024/01/09 00:32:46;;;;;;;4.13;2.20;;;;;;;;;;5017192;28;20033;-84
2024/01/09 00:35:14;;;;;;;4.13;2.17;;;;;;;;;;5016228;28;20083;-84
2024/01/09 00:37:40;;;;;;;4.38;2.47;;;;;;;;;;5013707;28;20533;-84
2024/01/09 00:40:06;;;;;;;4.80;2.30;;;;;;;;;;5017857;28;20314;-84
2024/01/09 00:42:31;;;;;;;4.70;2.17;;;;;;;;;;5021898;28;20025;-84
2024/01/09 00:45:00;;;;;;;5.63;2.28;;;;;;;;;;5016936;28;20036;-84
2024/01/09 00:47:27;;;;;;;5.68;2.45;;;;;;;;;;5015151;28;20026;-84
2024/01/09 00:49:53;;;;;;;4.80;2.25;;;;;;;;;;5022431;28;20025;-84
2024/01/09 00:52:18;;;;;;;4.00;2.00;;;;;;;;;;5015003;28;20037;-85
2024/01/09 00:54:45;;;;;;;4.10;2.15;;;;;;;;;;5021214;28;20013;-84
2024/01/09 00:57:10;;;;;;;4.88;1.98;;;;;;;;;;5015999;28;20026;-84
2024/01/09 00:59:36;;;;;;;5.22;2.35;;;;;;;;;;5020053;28;20396;-84
2024/01/09 01:02:01;;;;;;;4.40;2.50;;;;;;;;;;5026877;28;20030;-85
2024/01/09 01:04:29;;;;;;;5.57;2.25;;;;;;;;;;5014177;28;20063;-85
2024/01/09 01:06:54;;;;;;;4.88;2.40;;;;;;;;;;5012411;28;20026;-85
2024/01/09 01:09:22;;;;;;;4.32;2.35;;;;;;;;;;5015286;28;20030;-85
2024/01/09 01:11:49;;;;;;;5.18;2.30;;;;;;;;;;5017733;28;20029;-85
2024/01/09 01:14:14;;;;;;;4.68;2.25;;;;;;;;;;5001148;28;20034;-85
2024/01/09 01:16:39;;;;;;;5.03;2.40;;;;;;;;;;5021378;28;20076;-85
2024/01/09 01:19:06;;;;;;;4.38;2.22;;;;;;;;;;4999799;28;20596;-85
2024/01/09 01:21:31;;;;;;;4.80;2.45;;;;;;;;;;5013991;28;20033;-86
2024/01/09 01:24:00;;;;;;;5.10;2.60;;;;;;;;;;5013593;28;20163;-85
2024/01/09 01:26:25;;;;;;;5.10;2.38;;;;;;;;;;5018461;28;20026;-85
2024/01/09 01:28:50;;;;;;;6.55;3.00;;;;;;;;;;5009737;28;20044;-86
2024/01/09 01:31:16;;;;;;;4.13;2.10;;;;;;;;;;4999978;28;20484;-86
2024/01/09 01:33:41;;;;;;;4.75;2.30;;;;;;;;;;5016747;28;20457;-86
2024/01/09 01:36:15;;;;;;;4.13;2.20;;;;;;;;;;5014143;28;20109;-86
2024/01/09 01:38:41;;;;;;;5.47;2.50;;;;;;;;;;5018830;28;20039;-79
2024/01/09 01:41:07;;;;;;;5.57;2.33;;;;;;;;;;5016033;28;20080;-79
2024/01/09 01:43:32;;;;;;;4.78;2.30;;;;;;;;;;5013175;28;20045;-79
2024/01/09 01:46:01;;;;;;;3.67;2.13;;;;;;;;;;5010311;28;20018;-79
2024/01/09 01:48:26;;;;;;;5.03;2.50;;;;;;;;;;5019167;28;20120;-79
2024/01/09 01:50:52;;;;;;;5.95;2.17;;;;;;;;;;5014275;28;20132;-79
2024/01/09 01:53:17;;;;;;;5.55;2.78;;;;;;;;;;5015282;28;20771;-79
2024/01/09 01:55:45;;;;;;;4.43;2.08;;;;;;;;;;5016142;28;20451;-79
2024/01/09 01:58:10;;;;;;;4.22;1.92;;;;;;;;;;5016622;28;20060;-79
2024/01/09 02:00:36;;;;;;;4.53;2.25;;;;;;;;;;5016061;28;20029;-80
2024/01/09 02:03:05;;;;;;;4.93;2.17;;;;;;;;;;5032945;22;20034;-83
2024/01/09 02:05:31;;;;;;;4.15;2.10;;;;;;;;;;5056705;28;20037;-85
2024/01/09 02:07:57;;;;;;;5.57;2.40;;;;;;;;;;5052131;28;20032;-85
2024/01/09 02:10:23;;;;;;;5.13;2.38;;;;;;;;;;5059087;28;20421;-86
2024/01/09 02:12:49;;;;;;;6.60;2.13;;;;;;;;;;5059563;28;20024;-86
2024/01/09 02:15:15;;;;;;;5.45;2.38;;;;;;;;;;5061929;28;20054;-85
2024/01/09 02:17:41;;;;;;;4.60;2.15;;;;;;;;;;5056774;28;20020;-86
2024/01/09 02:20:07;;;;;;;4.75;2.15;;;;;;;;;;5073051;28;20047;-85
2024/01/09 02:22:33;;;;;;;4.90;1.90;;;;;;;;;;5070341;28;20025;-85
2024/01/09 02:24:58;;;;;;;4.82;2.17;;;;;;;;;;5056084;28;20047;-86
2024/01/09 02:27:36;;;;;;;4.25;1.98;;;;;;;;;;5062243;28;20390;-85
2024/01/09 02:30:02;;;;;;;3.90;1.85;;;;;;;;;;5056750;28;20502;-86
2024/01/09 02:32:27;;;;;;;5.22;2.30;;;;;;;;;;5052896;28;20024;-86
2024/01/09 02:34:53;;;;;;;4.18;1.95;;;;;;;;;;5057084;28;20025;-86
2024/01/09 02:37:18;;;;;;;4.93;2.47;;;;;;;;;;5054524;28;20033;-86
2024/01/09 02:39:44;;;;;;;4.85;2.10;;;;;;;;;;5058576;28;20024;-85
2024/01/09 02:42:09;;;;;;;5.15;2.50;;;;;;;;;;5056199;28;20399;-86
2024/01/09 02:44:35;;;;;;;5.00;2.45;;;;;;;;;;5048585;28;20044;-86
2024/01/09 02:47:01;;;;;;;5.78;2.22;;;;;;;;;;5055328;28;20495;-86
2024/01/09 02:49:26;;;;;;;4.10;1.98;;;;;;;;;;5051421;28;20032;-86
2024/01/09 02:51:52;;;;;;;5.45;2.00;;;;;;;;;;5056006;28;20020;-86
2024/01/09 02:54:18;;;;;;;4.22;1.75;;;;;;;;;;5057750;28;20450;-85
2024/01/09 02:56:43;;;;;;;5.13;1.95;;;;;;;;;;5056835;28;20052;-86
2024/01/09 02:59:09;;;;;;;5.20;2.30;;;;;;;;;;5057090;28;20032;-86
2024/01/09 03:01:34;;;;;;;5.10;2.15;;;;;;;;;;5056064;28;20066;-86
2024/01/09 03:04:00;;;;;;;3.20;1.75;;;;;;;;;;5047171;28;20111;-86
2024/01/09 03:06:25;;;;;;;5.10;2.17;;;;;;;;;;5054734;28;20502;-86
2024/01/09 03:08:51;;;;;;;6.03;2.25;;;;;;;;;;5049444;28;20021;-86
2024/01/09 03:11:16;;;;;;;4.15;2.38;;;;;;;;;;5060744;28;20115;-85
2024/01/09 03:13:42;;;;;;;3.95;1.98;;;;;;;;;;5055816;28;20111;-86
2024/01/09 03:16:11;;;;;;;4.85;1.98;;;;;;;;;;5049785;28;20024;-86
2024/01/09 03:18:37;;;;;;;6.88;2.60;;;;;;;;;;5070333;28;20055;-85
2024/01/09 03:21:02;;;;;;;5.25;2.28;;;;;;;;;;5053734;28;20102;-85
2024/01/09 03:23:28;;;;;;;5.38;2.22;;;;;;;;;;5071628;28;20040;-86
2024/01/09 03:25:53;;;;;;;4.03;1.88;;;;;;;;;;5050128;28;20380;-85
2024/01/09 03:28:19;;;;;;;5.07;2.15;;;;;;;;;;5054355;28;20025;-83
2024/01/09 03:30:44;;;;;;;4.93;1.98;;;;;;;;;;5050002;28;20024;-83
2024/01/09 03:33:09;;;;;;;5.30;2.17;;;;;;;;;;5055000;28;20552;-83
2024/01/09 03:35:35;;;;;;;5.70;2.22;;;;;;;;;;5051798;28;20033;-83
2024/01/09 03:38:00;;;;;;;4.47;2.40;;;;;;;;;;5059191;28;20032;-84
2024/01/09 03:40:26;;;;;;;4.65;2.42;;;;;;;;;;5049403;28;20030;-83
2024/01/09 03:42:51;;;;;;;4.05;2.03;;;;;;;;;;5056009;28;20124;-82
2024/01/09 03:45:16;;;;;;;4.25;2.28;;;;;;;;;;5053851;28;20032;-83
2024/01/09 03:47:42;;;;;;;4.78;2.10;;;;;;;;;;5071710;28;20024;-83
2024/01/09 03:50:08;;;;;;;5.90;2.15;;;;;;;;;;5055187;28;20051;-83
2024/01/09 03:52:36;;;;;;;4.85;2.50;;;;;;;;;;5056748;28;20028;-83
2024/01/09 03:55:02;;;;;;;4.95;2.05;;;;;;;;;;5050688;28;20108;-83
2024/01/09 03:57:27;;;;;;;5.05;2.50;;;;;;;;;;5053595;28;20115;-82
2024/01/09 03:59:52;;;;;;;4.70;2.25;;;;;;;;;;5048230;28;20032;-83
2024/01/09 04:02:18;;;;;;;4.35;1.90;;;;;;;;;;5053631;28;20524;-83
2024/01/09 04:04:43;;;;;;;4.68;2.38;;;;;;;;;;5047480;28;20032;-83
2024/01/09 04:07:08;;;;;;;5.53;2.20;;;;;;;;;;5052799;28;20088;-83
2024/01/09 04:09:34;;;;;;;3.85;2.15;;;;;;;;;;5052916;28;20077;-83
2024/01/09 04:11:59;;;;;;;5.63;2.20;;;;;;;;;;5067842;28;20394;-83
2024/01/09 04:14:25;;;;;;;4.47;2.05;;;;;;;;;;5068632;28;20052;-83
2024/01/09 04:16:50;;;;;;;4.93;2.63;;;;;;;;;;5052183;28;20032;-83
2024/01/09 04:19:16;;;;;;;5.63;2.67;;;;;;;;;;5068835;28;20023;-83
2024/01/09 04:21:41;;;;;;;4.32;1.98;;;;;;;;;;5054125;28;20032;-82
2024/01/09 04:24:07;;;;;;;5.28;2.20;;;;;;;;;;5054022;28;20090;-83
2024/01/09 04:26:32;;;;;;;5.82;2.60;;;;;;;;;;5068366;28;20471;-83
2024/01/09 04:28:57;;;;;;;5.32;2.28;;;;;;;;;;5070343;28;20090;-83
2024/01/09 04:31:26;;;;;;;4.88;2.17;;;;;;;;;;5053717;28;20111;-83
2024/01/09 04:33:51;;;;;;;4.38;2.10;;;;;;;;;;5052388;28;20471;-82
2024/01/09 04:36:17;;;;;;;6.20;2.40;;;;;;;;;;5051716;28;20039;-82
2024/01/09 04:38:45;;;;;;;6.45;2.38;;;;;;;;;;5050310;28;20062;-83
2024/01/09 04:41:16;;;;;;;6.15;2.53;;;;;;;;;;5053216;28;20082;-83
2024/01/09 04:43:41;;;;;;;5.03;2.33;;;;;;;;;;5053871;28;20028;-83
2024/01/09 04:46:07;;;;;;;4.35;2.17;;;;;;;;;;5045938;28;20032;-84
2024/01/09 04:48:33;;;;;;;4.68;2.10;;;;;;;;;;5053427;28;20543;-83
2024/01/09 04:50:58;;;;;;;6.35;2.53;;;;;;;;;;5052555;28;20123;-84
2024/01/09 04:53:24;;;;;;;5.38;2.50;;;;;;;;;;5068426;28;20399;-83
2024/01/09 04:55:49;;;;;;;5.82;2.17;;;;;;;;;;5053741;28;20491;-83
2024/01/09 04:58:14;;;;;;;4.70;2.03;;;;;;;;;;5052021;28;20483;-84
2024/01/09 05:00:40;;;;;;;5.32;2.55;;;;;;;;;;5056131;28;20032;-83
2024/01/09 05:03:05;;;;;;;8.23;2.58;;;;;;;;;;5053305;28;20490;-83
2024/01/09 05:05:31;;;;;;;4.75;2.15;;;;;;;;;;5059030;28;20051;-83
2024/01/09 05:07:56;;;;;;;7.28;2.95;;;;;;;;;;5058207;28;20028;-83
2024/01/09 05:10:21;;;;;;;5.40;2.50;;;;;;;;;;5058176;28;20111;-83
2024/01/09 05:12:47;;;;;;;4.18;2.10;;;;;;;;;;5054767;28;20036;-83
2024/01/09 05:15:12;;;;;;;4.35;2.20;;;;;;;;;;5071438;28;20032;-83
2024/01/09 05:17:38;;;;;;;4.45;2.17;;;;;;;;;;5052646;28;20566;-84
2024/01/09 05:20:04;;;;;;;5.63;2.25;;;;;;;;;;5073809;28;20499;-83
2024/01/09 05:22:29;;;;;;;5.05;2.63;;;;;;;;;;5068587;28;20051;-83
2024/01/09 05:24:55;;;;;;;4.68;2.38;;;;;;;;;;5061953;28;20365;-83
2024/01/09 05:27:20;;;;;;;4.97;2.38;;;;;;;;;;5052346;28;20048;-83
2024/01/09 05:29:46;;;;;;;4.70;2.60;;;;;;;;;;5058717;28;20032;-83
2024/01/09 05:32:11;;;;;;;5.28;2.28;;;;;;;;;;5058911;28;20031;-83
2024/01/09 05:34:36;;;;;;;5.90;2.33;;;;;;;;;;5062915;28;20081;-83
2024/01/09 05:37:02;;;;;;;5.65;2.67;;;;;;;;;;5060820;28;20123;-83
2024/01/09 05:39:27;;;;;;;5.20;2.50;;;;;;;;;;5058918;28;20396;-83
2024/01/09 05:41:55;;;;;;;5.90;2.80;;;;;;;;;;5058100;28;20029;-83
2024/01/09 05:44:20;;;;;;;5.28;2.80;;;;;;;;;;5074905;28;20475;-83
2024/01/09 05:46:45;;;;;;;5.22;2.63;;;;;;;;;;5054057;28;20059;-82
2024/01/09 05:49:11;;;;;;;5.97;2.83;;;;;;;;;;5057087;28;20020;-83
2024/01/09 05:51:36;;;;;;;6.10;2.95;;;;;;;;;;5052687;28;20528;-83
2024/01/09 05:54:02;;;;;;;4.55;2.58;;;;;;;;;;5056346;28;20115;-82
2024/01/09 05:56:27;;;;;;;8.90;2.72;;;;;;;;;;5053646;28;20123;-84
2024/01/09 05:58:53;;;;;;;5.50;2.45;;;;;;;;;;5053648;28;20115;-83
2024/01/09 06:01:18;;;;;;;5.72;2.63;;;;;;;;;;5071044;28;20096;-83
2024/01/09 06:03:44;;;;;;;4.20;2.03;;;;;;;;;;5055167;28;20035;-83
2024/01/09 06:06:09;;;;;;;6.05;2.47;;;;;;;;;;5060606;28;20025;-85
2024/01/09 06:08:34;;;;;;;5.93;2.63;;;;;;;;;;5055662;28;20116;-85
2024/01/09 06:11:00;;;;;;;6.53;3.03;;;;;;;;;;5061644;28;20479;-84
2024/01/09 06:13:29;;;;;;;6.40;2.80;;;;;;;;;;5059167;28;20024;-84
2024/01/09 06:15:54;;;;;;;6.97;3.00;;;;;;;;;;5051899;28;20379;-84
2024/01/09 06:18:20;;;;;;;5.88;2.83;;;;;;;;;;5054210;28;20020;-84
2024/01/09 06:20:45;;;;;;;4.68;2.60;;;;;;;;;;5053624;28;20025;-84
2024/01/09 06:23:10;;;;;;;7.28;3.25;;;;;;;;;;5063242;28;20036;-84
2024/01/09 06:25:36;;;;;;;6.35;3.17;;;;;;;;;;5050175;28;20566;-84
2024/01/09 06:28:03;;;;;;;5.80;2.60;;;;;;;;;;5051386;28;20024;-84
2024/01/09 06:30:28;;;;;;;5.57;2.83;;;;;;;;;;5048947;28;20025;-83
2024/01/09 06:32:54;;;;;;;6.28;2.90;;;;;;;;;;5056869;28;20456;-83
2024/01/09 06:35:19;;;;;;;7.28;3.45;;;;;;;;;;5051999;28;20481;-83
2024/01/09 06:37:45;;;;;;;7.15;3.08;;;;;;;;;;5059444;28;20025;-83
2024/01/09 06:40:10;;;;;;;7.03;3.30;;;;;;;;;;5052946;28;20043;-83
2024/01/09 06:42:36;;;;;;;6.20;2.97;;;;;;;;;;5080871;28;20463;-83
2024/01/09 06:45:02;;;;;;;5.57;2.63;;;;;;;;;;5053748;28;20031;-83
2024/01/09 06:47:27;;;;;;;6.47;3.33;;;;;;;;;;5048322;28;20067;-83
2024/01/09 06:49:53;;;;;;;6.82;3.15;;;;;;;;;;5067946;28;20036;-83
2024/01/09 06:52:18;;;;;;;5.85;2.88;;;;;;;;;;5058869;28;20107;-84
2024/01/09 06:54:44;;;;;;;5.45;2.75;;;;;;;;;;5056179;28;20016;-83
2024/01/09 06:57:09;;;;;;;6.63;3.47;;;;;;;;;;5050236;28;20033;-83
2024/01/09 06:59:35;;;;;;;6.93;3.30;;;;;;;;;;5052073;28;20036;-82
2024/01/09 07:02:01;;;;;;;5.68;2.58;;;;;;;;;;5073427;28;20102;-84
2024/01/09 07:04:26;;;;;;;5.63;2.78;;;;;;;;;;5071169;28;20461;-83
2024/01/09 07:06:52;;;;;;;7.32;3.70;;;;;;;;;;5056829;28;20020;-84
2024/01/09 07:09:18;;;;;;;5.80;2.95;;;;;;;;;;5049034;28;20033;-84
2024/01/09 07:11:43;;;;;;;7.30;3.08;;;;;;;;;;5051749;28;20021;-85
2024/01/09 07:14:10;;;;;;;6.97;3.17;;;;;;;;;;5051580;28;20023;-85
2024/01/09 07:16:35;;;;;;;7.35;3.28;;;;;;;;;;5053734;28;20070;-84
2024/01/09 07:19:01;;;;;;;7.05;3.08;;;;;;;;;;5047768;28;20032;-85
2024/01/09 07:21:27;;;;;;;6.88;3.17;;;;;;;;;;5055844;28;20043;-85
2024/01/09 07:23:52;;;;;;;7.53;3.70;;;;;;;;;;5054691;28;20111;-85
2024/01/09 07:26:18;;;;;;;5.85;2.78;;;;;;;;;;5054680;28;20048;-86
2024/01/09 07:28:43;;;;;;;6.43;3.10;;;;;;;;;;5050282;28;20035;-85
2024/01/09 07:31:09;;;;;;;5.88;3.03;;;;;;;;;;5056564;28;20028;-85
2024/01/09 07:33:35;;;;;;;7.40;3.33;;;;;;;;;;5053135;28;20387;-85
2024/01/09 07:36:00;;;;;;;7.97;3.70;;;;;;;;;;5049142;28;20494;-85
2024/01/09 07:38:26;;;;;;;8.45;3.80;;;;;;;;;;5052535;28;20020;-85
2024/01/09 07:40:51;;;;;;;10.40;3.33;;;;;;;;;;5068122;28;20029;-86
2024/01/09 07:43:17;;;;;;;7.35;3.42;;;;;;;;;;5052257;28;20036;-85
2024/01/09 07:45:44;;;;;;;9.05;3.10;;;;;;;;;;5055124;28;20039;-85
2024/01/09 07:48:09;;;;;;;7.82;3.63;;;;;;;;;;5051260;28;20028;-86
2024/01/09 07:50:34;;;;;;;7.93;3.63;;;;;;;;;;5055543;28;20020;-85
2024/01/09 07:53:00;;;;;;;7.05;3.58;;;;;;;;;;5056039;28;20073;-85
2024/01/09 07:55:25;;;;;;;7.97;3.60;;;;;;;;;;5053576;28;20028;-86
2024/01/09 07:57:51;;;;;;;6.20;3.08;;;;;;;;;;5051688;28;20032;-86
2024/01/09 08:00:17;;;;;;;7.03;3.63;;;;;;;;;;5050947;28;20041;-85
2024/01/09 08:02:42;;;;;;;8.70;3.90;;;;;;;;;;5036697;28;20029;-86
2024/01/09 08:05:08;;;;;;;6.93;3.38;;;;;;;;;;5071996;28;20035;-85
2024/01/09 08:07:34;;;;;;;7.40;3.10;;;;;;;;;;5056265;28;20395;-86
2024/01/09 08:10:00;;;;;;;8.20;3.28;;;;;;;;;;5053473;28;20024;-85
2024/01/09 08:12:28;;;;;;;7.35;3.85;;;;;;;;;;5052489;28;20024;-86
2024/01/09 08:14:53;;;;;;;6.35;3.30;;;;;;;;;;5053363;28;20032;-85
2024/01/09 08:17:19;;;;;;;7.65;3.30;;;;;;;;;;5045215;28;20031;-82
2024/01/09 08:19:45;;;;;;;7.47;3.83;;;;;;;;;;5054145;28;20029;-83
2024/01/09 08:22:11;;;;;;;6.88;3.20;;;;;;;;;;5072655;28;20028;-83
2024/01/09 08:24:37;;;;;;;6.32;3.47;;;;;;;;;;5054419;28;20051;-83
2024/01/09 08:27:03;;;;;;;7.05;3.67;;;;;;;;;;5053788;28;20032;-82
2024/01/09 08:29:28;;;;;;;6.93;3.38;;;;;;;;;;5053708;28;20410;-82
2024/01/09 08:31:54;;;;;;;6.65;3.03;;;;;;;;;;5053603;28;20070;-83
2024/01/09 08:34:19;;;;;;;8.07;3.58;;;;;;;;;;5053736;28;20040;-82
2024/01/09 08:36:45;;;;;;;6.85;3.53;;;;;;;;;;5052444;28;20024;-82
2024/01/09 08:39:12;;;;;;;6.75;3.38;;;;;;;;;;5053540;28;20053;-82
2024/01/09 08:41:37;;;;;;;7.35;3.38;;;;;;;;;;5054867;28;20492;-82
2024/01/09 08:44:03;;;;;;;8.63;3.75;;;;;;;;;;5057297;28;20078;-82
2024/01/09 08:46:28;;;;;;;8.60;3.80;;;;;;;;;;5053754;28;20045;-83
2024/01/09 08:48:54;;;;;;;11.02;3.55;;;;;;;;;;5053694;28;20024;-82
2024/01/09 08:51:19;;;;;;;6.55;3.45;;;;;;;;;;5054023;28;20076;-82
2024/01/09 08:53:44;;;;;;;7.43;3.47;;;;;;;;;;5054135;28;20491;-82
2024/01/09 08:56:10;;;;;;;7.53;3.40;;;;;;;;;;5073936;28;20027;-82
2024/01/09 08:58:36;;;;;;;9.43;3.33;;;;;;;;;;5047948;28;20043;-83
2024/01/09 09:01:01;;;;;;;8.13;3.63;;;;;;;;;;5049442;28;20170;-83
2024/01/09 09:03:27;;;;;;;7.95;3.60;;;;;;;;;;5049357;28;20036;-82
2024/01/09 09:05:52;;;;;;;7.03;3.72;;;;;;;;;;5053355;28;20081;-83
2024/01/09 09:08:19;;;;;;;7.13;3.33;;;;;;;;;;5057354;28;20475;-83
2024/01/09 09:10:45;;;;;;;8.07;3.55;;;;;;;;;;5054146;28;20541;-83
2024/01/09 09:13:10;;;;;;;8.85;3.60;;;;;;;;;;5071860;28;20029;-83
2024/01/09 09:15:36;;;;;;;9.02;3.63;;;;;;;;;;5053038;28;20024;-83
2024/01/09 09:18:01;;;;;;;7.00;3.47;;;;;;;;;;5059721;28;20029;-83
2024/01/09 09:20:26;;;;;;;8.35;3.67;;;;;;;;;;5071732;28;20468;-83
2024/01/09 09:22:52;;;;;;;8.25;2.97;;;;;;;;;;5057222;28;20055;-84
2024/01/09 09:25:17;;;;;;;6.72;3.45;;;;;;;;;;5067317;28;20116;-83
2024/01/09 09:27:45;;;;;;;7.05;3.30;;;;;;;;;;5080416;28;20464;-84
2024/01/09 09:30:12;;;;;;;7.75;3.63;;;;;;;;;;5069718;28;20063;-84
2024/01/09 09:32:38;;;;;;;7.07;3.42;;;;;;;;;;5052926;28;20405;-83
2024/01/09 09:35:03;;;;;;;6.97;3.60;;;;;;;;;;5050643;28;20025;-83
2024/01/09 09:37:29;;;;;;;7.97;3.92;;;;;;;;;;5068462;28;20036;-87
2024/01/09 09:39:55;;;;;;;8.82;3.75;;;;;;;;;;5054875;28;20445;-86
2024/01/09 09:42:21;;;;;;;8.65;3.88;;;;;;;;;;5055567;28;20024;-85
2024/01/09 09:44:54;;;;;;;8.50;3.83;;;;;;;;;;5055041;28;20085;-85
2024/01/09 09:47:21;;;;;;;8.70;3.67;;;;;;;;;;5055757;28;20017;-86
2024/01/09 09:49:48;;;;;;;7.68;3.28;;;;;;;;;;5049083;28;20028;-85
2024/01/09 09:52:14;;;;;;;9.95;4.50;;;;;;;;;;5054102;28;20111;-85
2024/01/09 09:54:40;;;;;;;9.43;3.67;;;;;;;;;;5054463;28;20016;-85
2024/01/09 09:57:06;;;;;;;7.75;3.63;;;;;;;;;;5053410;28;20032;-85
2024/01/09 09:59:32;;;;;;;8.27;3.75;;;;;;;;;;5056604;28;20388;-86
2024/01/09 10:02:01;;;;;;;8.35;3.72;;;;;;;;;;5051610;28;20017;-85
2024/01/09 10:04:30;;;;;;;9.07;3.70;;;;;;;;;;5050763;28;20060;-85
2024/01/09 10:06:57;;;;;;;8.95;3.53;;;;;;;;;;5049501;28;20027;-86
2024/01/09 10:09:26;;;;;;;7.97;3.70;;;;;;;;;;5048249;28;20079;-85
2024/01/09 10:11:52;;;;;;;8.15;3.40;;;;;;;;;;5052316;28;20130;-85
2024/01/09 10:14:18;;;;;;;6.93;3.55;;;;;;;;;;5063445;28;20055;-86
2024/01/09 10:16:53;;;;;;;6.93;3.40;;;;;;;;;;5041702;28;20126;-85
2024/01/09 10:19:22;;;;;;;12.32;3.83;;;;;;;;;;5057607;28;20115;-85
2024/01/09 10:21:49;;;;;;;7.38;3.20;;;;;;;;;;5052309;28;20025;-86
2024/01/09 10:24:15;;;;;;;6.47;3.08;;;;;;;;;;5051781;28;20032;-86
2024/01/09 10:26:41;;;;;;;6.53;3.28;;;;;;;;;;5074156;28;20369;-86
2024/01/09 10:29:13;;;;;;;8.23;3.67;;;;;;;;;;5057575;28;20028;-86
2024/01/09 10:31:42;;;;;;;8.60;3.58;;;;;;;;;;5057326;28;20051;-86
2024/01/09 10:34:08;;;;;;;9.55;3.47;;;;;;;;;;5054807;28;20033;-86
2024/01/09 10:36:34;;;;;;;9.57;3.28;;;;;;;;;;5057241;28;20086;-87
2024/01/09 10:39:06;;;;;;;7.43;3.60;;;;;;;;;;5055252;28;20531;-86
2024/01/09 10:41:32;;;;;;;6.15;3.20;;;;;;;;;;5056636;28;20391;-86
2024/01/09 10:44:02;;;;;;;8.95;3.47;;;;;;;;;;5074311;28;20039;-87
2024/01/09 10:46:33;;;;;;;7.63;3.42;;;;;;;;;;5058097;28;20040;-87
2024/01/09 10:49:00;;;;;;;6.68;3.05;;;;;;;;;;5072957;28;20386;-87
2024/01/09 10:51:26;;;;;;;6.28;3.00;;;;;;;;;;5071417;28;20024;-87
2024/01/09 10:53:53;;;;;;;5.85;3.17;;;;;;;;;;5069638;28;20056;-86
2024/01/09 10:56:23;;;;;;;7.40;3.20;;;;;;;;;;5076142;28;20055;-87
2024/01/09 10:58:50;;;;;;;7.15;3.72;;;;;;;;;;5074805;28;20025;-87
2024/01/09 11:01:16;;;;;;;6.90;2.83;;;;;;;;;;5057266;28;20024;-87
2024/01/09 11:03:45;;;;;;;7.50;3.28;;;;;;;;;;5055766;28;20029;-88
2024/01/09 11:06:15;;;;;;;6.13;2.95;;;;;;;;;;5060855;28;20439;-87
2024/01/09 11:08:43;;;;;;;6.07;2.97;;;;;;;;;;5054940;28;20040;-87
2024/01/09 11:11:13;;;;;;;7.45;3.28;;;;;;;;;;5054123;28;20082;-88
2024/01/09 11:13:46;;;;;;;6.13;2.85;;;;;;;;;;5050669;28;20040;-90
2024/01/09 11:16:15;;;;;;;5.43;2.33;;;;;;;;;;5060101;28;20029;-86
2024/01/09 11:18:46;;;;;;;5.40;2.72;;;;;;;;;;5056690;28;20061;-89
2024/01/09 11:21:24;;;;;;;6.40;3.13;;;;;;;;;;5037910;28;20048;-89
2024/01/09 11:23:55;;;;;;;9.00;3.10;;;;;;;;;;5051250;28;20036;-89
2024/01/09 11:26:22;;;;;;;5.45;2.75;;;;;;;;;;5076898;28;20021;-88
2024/01/09 11:28:48;;;;;;;4.82;2.20;;;;;;;;;;5056701;28;20633;-88
2024/01/09 11:31:17;;;;;;;9.48;3.55;;;;;;;;;;5061340;28;20032;-86
2024/01/09 11:33:42;;;;;;;5.32;2.80;;;;;;;;;;5056511;28;20035;-86
2024/01/09 11:36:11;;;;;;;5.97;2.75;;;;;;;;;;5056632;28;20036;-86
2024/01/09 11:38:37;;;;;;;7.13;2.92;;;;;;;;;;5055938;28;20024;-88
2024/01/09 11:41:04;;;;;;;6.28;3.00;;;;;;;;;;5060824;28;20028;-88
2024/01/09 11:43:50;;;;;;;5.32;2.30;;;;;;;;;;5072746;28;20077;-87
2024/01/09 11:46:15;;;;;;;5.13;2.70;;;;;;;;;;5054692;28;20035;-87
2024/01/09 11:48:41;;;;;;;5.82;2.92;;;;;;;;;;5055101;28;20058;-86
2024/01/09 11:51:06;;;;;;;6.63;3.10;;;;;;;;;;5056951;28;20119;-87
2024/01/09 11:53:32;;;;;;;7.65;2.90;;;;;;;;;;5069272;28;20039;-87
2024/01/09 11:55:58;;;;;;;6.38;3.22;;;;;;;;;;5053004;28;20059;-87
2024/01/09 11:58:24;;;;;;;6.80;2.90;;;;;;;;;;5052065;28;20031;-82
2024/01/09 12:00:50;;;;;;;5.90;2.60;;;;;;;;;;5073177;28;20032;-83
2024/01/09 12:03:16;;;;;;;5.55;2.90;;;;;;;;;;5051985;28;20441;-83
2024/01/09 12:05:41;;;;;;;6.10;2.78;;;;;;;;;;5069101;28;20119;-83
2024/01/09 12:08:06;;;;;;;4.85;2.40;;;;;;;;;;5053056;28;20294;-83
2024/01/09 12:10:33;;;;;;;6.28;2.67;;;;;;;;;;5066633;28;20087;-86
2024/01/09 12:13:03;;;;;;;6.85;3.08;;;;;;;;;;5065632;28;20024;-84
2024/01/09 12:15:29;;;;;;;5.88;2.78;;;;;;;;;;5049697;28;20078;-84
2024/01/09 12:17:56;;;;;;;6.38;2.67;;;;;;;;;;5054013;28;20032;-84
2024/01/09 12:20:21;;;;;;;5.85;2.83;;;;;;;;;;5049480;28;20376;-85
2024/01/09 12:22:47;;;;;;;5.38;2.58;;;;;;;;;;5049304;28;20024;-85
2024/01/09 12:25:13;;;;;;;4.80;2.75;;;;;;;;;;5053710;28;20050;-85
2024/01/09 12:27:39;;;;;;;6.07;2.95;;;;;;;;;;5051660;28;20020;-85
2024/01/09 12:30:06;;;;;;;5.65;2.30;;;;;;;;;;5054005;28;20040;-85
2024/01/09 12:32:31;;;;;;;6.30;2.88;;;;;;;;;;5052084;28;20035;-86
2024/01/09 12:34:57;;;;;;;5.93;2.83;;;;;;;;;;5069050;28;20024;-86
2024/01/09 12:37:36;;;;;;;6.70;2.88;;;;;;;;;;5067603;28;20063;-86
2024/01/09 12:40:09;;;;;;;7.40;2.38;;;;;;;;;;5052884;28;20040;-87
2024/01/09 12:42:34;;;;;;;4.47;2.17;;;;;;;;;;5061492;28;20494;-86
2024/01/09 12:45:00;;;;;;;5.80;2.45;;;;;;;;;;5051037;28;20028;-87
2024/01/09 12:47:31;;;;;;;5.05;2.50;;;;;;;;;;5054559;28;20487;-87
2024/01/09 12:49:57;;;;;;;4.20;2.20;;;;;;;;;;5053590;28;20036;-89
2024/01/09 12:52:26;;;;;;;5.80;2.75;;;;;;;;;;5054667;28;20025;-87
2024/01/09 12:54:54;;;;;;;5.50;2.40;;;;;;;;;;5049625;28;20028;-88
2024/01/09 12:57:25;;;;;;;5.57;2.40;;;;;;;;;;5058953;28;20020;-88
2024/01/09 12:59:51;;;;;;;5.35;2.50;;;;;;;;;;5050652;28;20024;-89
2024/01/09 13:02:20;;;;;;;5.25;2.33;;;;;;;;;;5054297;28;20036;-89
2024/01/09 13:04:51;;;;;;;5.40;2.45;;;;;;;;;;5056490;28;20032;-88
2024/01/09 13:07:32;;;;;;;6.72;2.97;;;;;;;;;;5055081;28;20427;-86
2024/01/09 13:10:03;;;;;;;7.65;2.60;;;;;;;;;;5053057;28;20033;-86
2024/01/09 13:12:29;;;;;;;5.60;2.47;;;;;;;;;;5048198;28;20027;-86
2024/01/09 13:15:03;;;;;;;6.05;2.90;;;;;;;;;;5053291;28;20020;-87
2024/01/09 13:17:34;;;;;;;6.03;2.72;;;;;;;;;;5039760;28;20041;-87
2024/01/09 13:20:20;;;;;;;4.65;2.10;;;;;;;;;;5051189;28;20037;-88
2024/01/09 13:22:53;;;;;;;3.90;2.10;;;;;;;;;;5051780;28;20028;-88
2024/01/09 13:25:18;;;;;;;4.63;2.28;;;;;;;;;;5047419;28;20033;-87
2024/01/09 13:27:44;;;;;;;6.65;2.75;;;;;;;;;;5048601;28;20391;-87
2024/01/09 13:30:10;;;;;;;6.00;2.38;;;;;;;;;;5052961;28;20020;-88
2024/01/09 13:32:37;;;;;;;5.93;2.20;;;;;;;;;;5049615;28;20094;-88
2024/01/09 13:35:03;;;;;;;6.18;2.92;;;;;;;;;;5053608;28;20051;-89
2024/01/09 13:37:29;;;;;;;5.75;2.78;;;;;;;;;;5054829;28;20032;-89
2024/01/09 13:39:56;;;;;;;5.40;2.28;;;;;;;;;;5052703;28;20059;-88
2024/01/09 13:42:22;;;;;;;5.88;2.45;;;;;;;;;;5051481;28;20020;-89
2024/01/09 13:44:47;;;;;;;6.75;2.38;;;;;;;;;;5051703;28;20020;-90
2024/01/09 13:47:13;;;;;;;5.93;2.65;;;;;;;;;;5055112;28;20020;-90
2024/01/09 13:49:38;;;;;;;5.63;2.60;;;;;;;;;;5055736;28;20790;-90
2024/01/09 13:52:04;;;;;;;6.78;2.47;;;;;;;;;;5070772;28;20020;-90
2024/01/09 13:54:29;;;;;;;7.32;2.60;;;;;;;;;;5057723;28;20490;-91
2024/01/09 13:56:57;;;;;;;4.78;2.33;;;;;;;;;;5057818;28;20024;-89
2024/01/09 13:59:22;;;;;;;5.15;2.28;;;;;;;;;;5054587;28;20082;-90
2024/01/09 14:02:12;;;;;;;4.93;2.50;;;;;;;;;;5055811;28;20107;-90
2024/01/09 14:04:37;;;;;;;5.95;2.70;;;;;;;;;;5056582;28;20039;-92
2024/01/09 14:07:09;;;;;;;5.10;2.60;;;;;;;;;;5055428;28;20029;-93
2024/01/09 14:09:36;;;;;;;4.68;2.22;;;;;;;;;;5054746;28;20016;-91
2024/01/09 14:12:02;;;;;;;5.00;2.22;;;;;;;;;;5055881;28;20081;-92
2024/01/09 14:14:28;;;;;;;7.72;2.65;;;;;;;;;;5056232;28;20475;-91
2024/01/09 14:16:53;;;;;;;4.85;2.08;;;;;;;;;;5055927;28;20036;-88
2024/01/09 14:19:19;;;;;;;6.70;2.80;;;;;;;;;;5055542;28;20032;-87
2024/01/09 14:21:47;;;;;;;5.97;2.45;;;;;;;;;;5059065;28;20029;-87
2024/01/09 14:24:13;;;;;;;5.20;2.30;;;;;;;;;;5056042;28;20040;-88
2024/01/09 14:26:40;;;;;;;5.10;2.10;;;;;;;;;;5057449;28;20395;-88
2024/01/09 14:29:06;;;;;;;4.45;2.08;;;;;;;;;;5054313;28;20032;-87
2024/01/09 14:31:32;;;;;;;5.22;2.33;;;;;;;;;;5054577;28;20040;-88
2024/01/09 14:33:58;;;;;;;5.03;2.28;;;;;;;;;;5052066;28;20024;-88
2024/01/09 14:36:24;;;;;;;5.20;2.30;;;;;;;;;;5071032;28;20032;-89
2024/01/09 14:38:50;;;;;;;4.22;2.30;;;;;;;;;;5052842;28;20031;-88